Cotia, Brazil
Current Conditions -  °F | °C
As of 5:00 AM on Sunday 26 Oct 2014 (Local Time) from SBCY Reporting Station
Broken Clouds Broken Clouds  
Wind Chill: 77°   Ceiling: 10000
Heat Index: 78°   Visibility: 6mi
Dew Point: 72°   Wind: 5mph
Humidity: 83%   Direction: 350°N
Pressure: 29.8"   Gusts: NA
Location:  15.97°S, 56.47°W
Report Text: SBCY 260800Z 35004KT 9999 FEW020 BKN100 25/22 Q1009
Loading
Personal Weather Stations






























Interactive Weather Map
Tropical Storm Tracking
New forecast layout! Learn more

10-Day Weather Forecast

Advertisements
Track Severe Weather on mobile